<?xml version="1.0" encoding="UTF-8" standalone="no" ?>
<gpx xmlns="http://www.topografix.com/GPX/1/1" xmlns:xsi="http://www.w3.org/2001/XMLSchema-instance" xsi:schemaLocation="http://www.topografix.com/GPX/1/1 http://www.topografix.com/GPX/1/1/gpx.xsd" version="1.1" creator="VisuGPX - https://www.visugpx.com">
  <metadata>
    <name>Pic de Lurtet en boucle</name>
    <desc><![CDATA[Pic de Lurtet  en boucle par Detscoubous au départ de Torunaboup]]></desc>
  </metadata>
  <wpt lat="42.90336" lon="0.10299">
    <ele>1380.39</ele>
    <name><![CDATA[0000008]]></name>
    <type><![CDATA[Point de départ]]></type>
  </wpt>
  <wpt lat="42.9036" lon="0.1029">
    <ele>1456.33</ele>
    <name><![CDATA[0000009]]></name>
    <desc><![CDATA[<p><br /><h3>Nom: Segment: 1</h3><br />Heure de départ: 01/18/2018 08:58<br/>Heure d'arrivée: 01/18/2018 15:48<br/>Distance: 10,9km (06:49)<br/>Temps déplacement: 02:26<br/>Vitesse moyenne: 1,6 km/h<br/>Vitesse moyenne mouv.: 4,41 km/h<br/>Vitesse Max.: 36,61 km/h<br/>Altitude minimale: 1380 m<br/>Altitude maximale: 2505 m<br/>Vitesse de montée: 254,1 m/h<br/>Vitesse de descente: -417,9 m/h<br/>Gain d'altitude: 1106 m<br/>Perte d'altitude: -1027 m<br/>Temps de montée: 04:21<br/>Temps de descente: 02:27<br/></p>]]></desc>
    <type><![CDATA[Point d'arrivée]]></type>
  </wpt>
  <trk>
    <name><![CDATA[2018-01-18 08:58]]></name>
    <desc><![CDATA[<p>Heure de départ: 01/18/2018 08:58<br/>Heure d'arrivée: 01/18/2018 15:48<br/>Distance: 10,9 km (06:49)<br/>Temps déplacement: 02:26<br/>Vitesse moyenne: 1,6 km/h<br/>Vitesse moyenne mouv.: 4,48 km/h<br/>Vitesse Max.: 36,61 km/h<br/>Altitude minimale: 1380 m<br/>Altitude maximale: 2505 m<br/>Vitesse de montée: 247,8 m/h<br/>Vitesse de descente: -396,4 m/h<br/>Gain d'altitude: 1055 m<br/>Perte d'altitude: -1019 m<br/>Temps de montée: 04:15<br/>Temps de descente: 02:34<br/></p><hr align="center" width="480" style="height: 2px; width: 517px"/>]]></desc>
    <trkseg>
      <trkpt lat="42.90336" lon="0.10299">
        <ele>1380.39</ele>
        <time>2018-01-18T07:58:15Z</time>
      </trkpt>
      <trkpt lat="42.90341" lon="0.10323">
        <ele>1462.44</ele>
        <time>2018-01-18T08:13:44Z</time>
      </trkpt>
      <trkpt lat="42.90333" lon="0.10345">
        <ele>1463.07</ele>
        <time>2018-01-18T08:14:18Z</time>
      </trkpt>
      <trkpt lat="42.90318" lon="0.10357">
        <ele>1463.29</ele>
        <time>2018-01-18T08:14:48Z</time>
      </trkpt>
      <trkpt lat="42.903" lon="0.1036">
        <ele>1464.08</ele>
        <time>2018-01-18T08:15:11Z</time>
      </trkpt>
      <trkpt lat="42.90282" lon="0.10363">
        <ele>1464.76</ele>
        <time>2018-01-18T08:15:27Z</time>
      </trkpt>
      <trkpt lat="42.90263" lon="0.10366">
        <ele>1466.03</ele>
        <time>2018-01-18T08:15:45Z</time>
      </trkpt>
      <trkpt lat="42.90245" lon="0.10368">
        <ele>1466.99</ele>
        <time>2018-01-18T08:16:02Z</time>
      </trkpt>
      <trkpt lat="42.90226" lon="0.10368">
        <ele>1467.81</ele>
        <time>2018-01-18T08:16:19Z</time>
      </trkpt>
      <trkpt lat="42.90207" lon="0.10368">
        <ele>1468.8</ele>
        <time>2018-01-18T08:16:38Z</time>
      </trkpt>
      <trkpt lat="42.90189" lon="0.10374">
        <ele>1470.66</ele>
        <time>2018-01-18T08:16:59Z</time>
      </trkpt>
      <trkpt lat="42.90173" lon="0.10385">
        <ele>1472.91</ele>
        <time>2018-01-18T08:17:20Z</time>
      </trkpt>
      <trkpt lat="42.90161" lon="0.10403">
        <ele>1474.35</ele>
        <time>2018-01-18T08:17:39Z</time>
      </trkpt>
      <trkpt lat="42.90143" lon="0.10406">
        <ele>1476.72</ele>
        <time>2018-01-18T08:18:01Z</time>
      </trkpt>
      <trkpt lat="42.90124" lon="0.10411">
        <ele>1477.96</ele>
        <time>2018-01-18T08:18:20Z</time>
      </trkpt>
      <trkpt lat="42.90109" lon="0.10426">
        <ele>1478.21</ele>
        <time>2018-01-18T08:18:39Z</time>
      </trkpt>
      <trkpt lat="42.901" lon="0.10448">
        <ele>1480.03</ele>
        <time>2018-01-18T08:19:04Z</time>
      </trkpt>
      <trkpt lat="42.90086" lon="0.10465">
        <ele>1483.48</ele>
        <time>2018-01-18T08:19:34Z</time>
      </trkpt>
      <trkpt lat="42.90075" lon="0.10485">
        <ele>1484.09</ele>
        <time>2018-01-18T08:19:58Z</time>
      </trkpt>
      <trkpt lat="42.90057" lon="0.10495">
        <ele>1484.23</ele>
        <time>2018-01-18T08:20:29Z</time>
      </trkpt>
      <trkpt lat="42.90039" lon="0.10499">
        <ele>1484.52</ele>
        <time>2018-01-18T08:20:54Z</time>
      </trkpt>
      <trkpt lat="42.90021" lon="0.10506">
        <ele>1486.09</ele>
        <time>2018-01-18T08:21:13Z</time>
      </trkpt>
      <trkpt lat="42.90005" lon="0.10516">
        <ele>1489.02</ele>
        <time>2018-01-18T08:21:36Z</time>
      </trkpt>
      <trkpt lat="42.89988" lon="0.10524">
        <ele>1491.37</ele>
        <time>2018-01-18T08:22:00Z</time>
      </trkpt>
      <trkpt lat="42.8997" lon="0.10531">
        <ele>1494.34</ele>
        <time>2018-01-18T08:22:25Z</time>
      </trkpt>
      <trkpt lat="42.89952" lon="0.1054">
        <ele>1496.56</ele>
        <time>2018-01-18T08:22:49Z</time>
      </trkpt>
      <trkpt lat="42.89937" lon="0.10553">
        <ele>1498.84</ele>
        <time>2018-01-18T08:23:07Z</time>
      </trkpt>
      <trkpt lat="42.89924" lon="0.1057">
        <ele>1502.56</ele>
        <time>2018-01-18T08:23:31Z</time>
      </trkpt>
      <trkpt lat="42.89909" lon="0.10585">
        <ele>1505.31</ele>
        <time>2018-01-18T08:23:52Z</time>
      </trkpt>
      <trkpt lat="42.89894" lon="0.10602">
        <ele>1508.18</ele>
        <time>2018-01-18T08:24:18Z</time>
      </trkpt>
      <trkpt lat="42.89882" lon="0.10621">
        <ele>1511.5</ele>
        <time>2018-01-18T08:24:40Z</time>
      </trkpt>
      <trkpt lat="42.89867" lon="0.10635">
        <ele>1515.01</ele>
        <time>2018-01-18T08:25:01Z</time>
      </trkpt>
      <trkpt lat="42.8985" lon="0.10645">
        <ele>1519.02</ele>
        <time>2018-01-18T08:25:25Z</time>
      </trkpt>
      <trkpt lat="42.89835" lon="0.1066">
        <ele>1523.4</ele>
        <time>2018-01-18T08:25:51Z</time>
      </trkpt>
      <trkpt lat="42.8982" lon="0.10674">
        <ele>1527.26</ele>
        <time>2018-01-18T08:26:11Z</time>
      </trkpt>
      <trkpt lat="42.89804" lon="0.10687">
        <ele>1533.28</ele>
        <time>2018-01-18T08:26:35Z</time>
      </trkpt>
      <trkpt lat="42.8979" lon="0.10705">
        <ele>1538.13</ele>
        <time>2018-01-18T08:27:00Z</time>
      </trkpt>
      <trkpt lat="42.89777" lon="0.10724">
        <ele>1540.47</ele>
        <time>2018-01-18T08:27:21Z</time>
      </trkpt>
      <trkpt lat="42.89763" lon="0.1074">
        <ele>1542.39</ele>
        <time>2018-01-18T08:27:40Z</time>
      </trkpt>
      <trkpt lat="42.89746" lon="0.10752">
        <ele>1545.11</ele>
        <time>2018-01-18T08:28:03Z</time>
      </trkpt>
      <trkpt lat="42.89728" lon="0.10763">
        <ele>1546.97</ele>
        <time>2018-01-18T08:28:18Z</time>
      </trkpt>
      <trkpt lat="42.89709" lon="0.10771">
        <ele>1548.04</ele>
        <time>2018-01-18T08:28:54Z</time>
      </trkpt>
      <trkpt lat="42.8969" lon="0.10774">
        <ele>1547.67</ele>
        <time>2018-01-18T08:29:23Z</time>
      </trkpt>
      <trkpt lat="42.89672" lon="0.10779">
        <ele>1549.19</ele>
        <time>2018-01-18T08:29:46Z</time>
      </trkpt>
      <trkpt lat="42.89654" lon="0.1078">
        <ele>1550.99</ele>
        <time>2018-01-18T08:30:57Z</time>
      </trkpt>
      <trkpt lat="42.89635" lon="0.10779">
        <ele>1565.66</ele>
        <time>2018-01-18T08:36:45Z</time>
      </trkpt>
      <trkpt lat="42.89616" lon="0.10782">
        <ele>1564.17</ele>
        <time>2018-01-18T08:37:02Z</time>
      </trkpt>
      <trkpt lat="42.89598" lon="0.10791">
        <ele>1563.81</ele>
        <time>2018-01-18T08:37:19Z</time>
      </trkpt>
      <trkpt lat="42.89581" lon="0.10785">
        <ele>1569.26</ele>
        <time>2018-01-18T08:38:12Z</time>
      </trkpt>
      <trkpt lat="42.89562" lon="0.10782">
        <ele>1571.92</ele>
        <time>2018-01-18T08:38:32Z</time>
      </trkpt>
      <trkpt lat="42.89544" lon="0.10779">
        <ele>1574.69</ele>
        <time>2018-01-18T08:39:15Z</time>
      </trkpt>
      <trkpt lat="42.89526" lon="0.10772">
        <ele>1581.94</ele>
        <time>2018-01-18T08:39:59Z</time>
      </trkpt>
      <trkpt lat="42.89509" lon="0.10764">
        <ele>1584.9</ele>
        <time>2018-01-18T08:40:20Z</time>
      </trkpt>
      <trkpt lat="42.8949" lon="0.10764">
        <ele>1586.88</ele>
        <time>2018-01-18T08:40:37Z</time>
      </trkpt>
      <trkpt lat="42.89472" lon="0.10763">
        <ele>1588.47</ele>
        <time>2018-01-18T08:40:56Z</time>
      </trkpt>
      <trkpt lat="42.89452" lon="0.10756">
        <ele>1587.87</ele>
        <time>2018-01-18T08:41:18Z</time>
      </trkpt>
      <trkpt lat="42.8943" lon="0.10759">
        <ele>1584.33</ele>
        <time>2018-01-18T08:41:48Z</time>
      </trkpt>
      <trkpt lat="42.89409" lon="0.10766">
        <ele>1584.01</ele>
        <time>2018-01-18T08:42:02Z</time>
      </trkpt>
      <trkpt lat="42.89392" lon="0.10758">
        <ele>1585.14</ele>
        <time>2018-01-18T08:42:26Z</time>
      </trkpt>
      <trkpt lat="42.89375" lon="0.10764">
        <ele>1586.35</ele>
        <time>2018-01-18T08:42:47Z</time>
      </trkpt>
      <trkpt lat="42.89357" lon="0.10772">
        <ele>1586.72</ele>
        <time>2018-01-18T08:43:16Z</time>
      </trkpt>
      <trkpt lat="42.89339" lon="0.10772">
        <ele>1587.92</ele>
        <time>2018-01-18T08:43:24Z</time>
      </trkpt>
      <trkpt lat="42.89323" lon="0.10758">
        <ele>1591.32</ele>
        <time>2018-01-18T08:43:53Z</time>
      </trkpt>
      <trkpt lat="42.8931" lon="0.10741">
        <ele>1593.93</ele>
        <time>2018-01-18T08:44:16Z</time>
      </trkpt>
      <trkpt lat="42.89293" lon="0.10732">
        <ele>1596.57</ele>
        <time>2018-01-18T08:44:36Z</time>
      </trkpt>
      <trkpt lat="42.89275" lon="0.1073">
        <ele>1599.77</ele>
        <time>2018-01-18T08:44:59Z</time>
      </trkpt>
      <trkpt lat="42.89257" lon="0.10729">
        <ele>1602.56</ele>
        <time>2018-01-18T08:45:14Z</time>
      </trkpt>
      <trkpt lat="42.89239" lon="0.10722">
        <ele>1605.35</ele>
        <time>2018-01-18T08:45:31Z</time>
      </trkpt>
      <trkpt lat="42.89221" lon="0.10725">
        <ele>1608.35</ele>
        <time>2018-01-18T08:45:52Z</time>
      </trkpt>
      <trkpt lat="42.89202" lon="0.10724">
        <ele>1611.46</ele>
        <time>2018-01-18T08:46:13Z</time>
      </trkpt>
      <trkpt lat="42.89184" lon="0.10719">
        <ele>1614.77</ele>
        <time>2018-01-18T08:46:36Z</time>
      </trkpt>
      <trkpt lat="42.89165" lon="0.10718">
        <ele>1619.05</ele>
        <time>2018-01-18T08:47:00Z</time>
      </trkpt>
      <trkpt lat="42.89147" lon="0.10716">
        <ele>1621.9</ele>
        <time>2018-01-18T08:47:17Z</time>
      </trkpt>
      <trkpt lat="42.89129" lon="0.10725">
        <ele>1623.68</ele>
        <time>2018-01-18T08:47:36Z</time>
      </trkpt>
      <trkpt lat="42.89112" lon="0.1073">
        <ele>1625.71</ele>
        <time>2018-01-18T08:47:52Z</time>
      </trkpt>
      <trkpt lat="42.89093" lon="0.10732">
        <ele>1628.74</ele>
        <time>2018-01-18T08:48:08Z</time>
      </trkpt>
      <trkpt lat="42.89075" lon="0.10732">
        <ele>1633.57</ele>
        <time>2018-01-18T08:48:31Z</time>
      </trkpt>
      <trkpt lat="42.89058" lon="0.10743">
        <ele>1638.1</ele>
        <time>2018-01-18T08:48:54Z</time>
      </trkpt>
      <trkpt lat="42.89042" lon="0.10755">
        <ele>1642.08</ele>
        <time>2018-01-18T08:49:16Z</time>
      </trkpt>
      <trkpt lat="42.89023" lon="0.10758">
        <ele>1644.08</ele>
        <time>2018-01-18T08:49:32Z</time>
      </trkpt>
      <trkpt lat="42.89004" lon="0.10759">
        <ele>1646.05</ele>
        <time>2018-01-18T08:49:52Z</time>
      </trkpt>
      <trkpt lat="42.88986" lon="0.10761">
        <ele>1647.08</ele>
        <time>2018-01-18T08:50:13Z</time>
      </trkpt>
      <trkpt lat="42.88969" lon="0.10754">
        <ele>1648.79</ele>
        <time>2018-01-18T08:50:36Z</time>
      </trkpt>
      <trkpt lat="42.88949" lon="0.10752">
        <ele>1650.52</ele>
        <time>2018-01-18T08:50:56Z</time>
      </trkpt>
      <trkpt lat="42.88931" lon="0.1075">
        <ele>1652.16</ele>
        <time>2018-01-18T08:51:18Z</time>
      </trkpt>
      <trkpt lat="42.88917" lon="0.10768">
        <ele>1654.78</ele>
        <time>2018-01-18T08:51:41Z</time>
      </trkpt>
      <trkpt lat="42.88902" lon="0.10782">
        <ele>1657.33</ele>
        <time>2018-01-18T08:52:04Z</time>
      </trkpt>
      <trkpt lat="42.88888" lon="0.108">
        <ele>1660.9</ele>
        <time>2018-01-18T08:52:31Z</time>
      </trkpt>
      <trkpt lat="42.88871" lon="0.10807">
        <ele>1662.13</ele>
        <time>2018-01-18T08:52:43Z</time>
      </trkpt>
      <trkpt lat="42.88853" lon="0.10805">
        <ele>1665.66</ele>
        <time>2018-01-18T08:53:07Z</time>
      </trkpt>
      <trkpt lat="42.88835" lon="0.1081">
        <ele>1669.44</ele>
        <time>2018-01-18T08:53:38Z</time>
      </trkpt>
      <trkpt lat="42.88818" lon="0.10819">
        <ele>1671.13</ele>
        <time>2018-01-18T08:53:57Z</time>
      </trkpt>
      <trkpt lat="42.888" lon="0.10824">
        <ele>1673.4</ele>
        <time>2018-01-18T08:54:22Z</time>
      </trkpt>
      <trkpt lat="42.88782" lon="0.10828">
        <ele>1675.36</ele>
        <time>2018-01-18T08:54:45Z</time>
      </trkpt>
      <trkpt lat="42.88764" lon="0.10837">
        <ele>1676.9</ele>
        <time>2018-01-18T08:55:04Z</time>
      </trkpt>
      <trkpt lat="42.88746" lon="0.10838">
        <ele>1679.17</ele>
        <time>2018-01-18T08:55:30Z</time>
      </trkpt>
      <trkpt lat="42.88728" lon="0.1084">
        <ele>1680.97</ele>
        <time>2018-01-18T08:56:02Z</time>
      </trkpt>
      <trkpt lat="42.8871" lon="0.1084">
        <ele>1682.15</ele>
        <time>2018-01-18T08:56:23Z</time>
      </trkpt>
      <trkpt lat="42.88691" lon="0.1084">
        <ele>1683.51</ele>
        <time>2018-01-18T08:56:40Z</time>
      </trkpt>
      <trkpt lat="42.88673" lon="0.10845">
        <ele>1686.38</ele>
        <time>2018-01-18T08:57:11Z</time>
      </trkpt>
      <trkpt lat="42.88655" lon="0.10848">
        <ele>1687.5</ele>
        <time>2018-01-18T08:57:36Z</time>
      </trkpt>
      <trkpt lat="42.88636" lon="0.10847">
        <ele>1689.83</ele>
        <time>2018-01-18T08:58:09Z</time>
      </trkpt>
      <trkpt lat="42.88625" lon="0.10869">
        <ele>1694.78</ele>
        <time>2018-01-18T08:59:06Z</time>
      </trkpt>
      <trkpt lat="42.88619" lon="0.10894">
        <ele>1699.25</ele>
        <time>2018-01-18T08:59:55Z</time>
      </trkpt>
      <trkpt lat="42.88604" lon="0.10907">
        <ele>1701.59</ele>
        <time>2018-01-18T09:00:25Z</time>
      </trkpt>
      <trkpt lat="42.88586" lon="0.10915">
        <ele>1704.93</ele>
        <time>2018-01-18T09:00:52Z</time>
      </trkpt>
      <trkpt lat="42.8857" lon="0.10927">
        <ele>1710.67</ele>
        <time>2018-01-18T09:03:42Z</time>
      </trkpt>
      <trkpt lat="42.88555" lon="0.10942">
        <ele>1711.24</ele>
        <time>2018-01-18T09:04:06Z</time>
      </trkpt>
      <trkpt lat="42.88543" lon="0.10961">
        <ele>1712.31</ele>
        <time>2018-01-18T09:04:31Z</time>
      </trkpt>
      <trkpt lat="42.88529" lon="0.10977">
        <ele>1715.16</ele>
        <time>2018-01-18T09:04:52Z</time>
      </trkpt>
      <trkpt lat="42.88514" lon="0.10993">
        <ele>1717.47</ele>
        <time>2018-01-18T09:05:12Z</time>
      </trkpt>
      <trkpt lat="42.88497" lon="0.11004">
        <ele>1721.4</ele>
        <time>2018-01-18T09:05:32Z</time>
      </trkpt>
      <trkpt lat="42.88481" lon="0.11014">
        <ele>1723.22</ele>
        <time>2018-01-18T09:05:57Z</time>
      </trkpt>
      <trkpt lat="42.88469" lon="0.11033">
        <ele>1723.62</ele>
        <time>2018-01-18T09:06:18Z</time>
      </trkpt>
      <trkpt lat="42.88456" lon="0.11051">
        <ele>1725.89</ele>
        <time>2018-01-18T09:06:39Z</time>
      </trkpt>
      <trkpt lat="42.88443" lon="0.11068">
        <ele>1726.87</ele>
        <time>2018-01-18T09:07:01Z</time>
      </trkpt>
      <trkpt lat="42.88435" lon="0.11091">
        <ele>1727.38</ele>
        <time>2018-01-18T09:07:25Z</time>
      </trkpt>
      <trkpt lat="42.88418" lon="0.11103">
        <ele>1726.71</ele>
        <time>2018-01-18T09:07:43Z</time>
      </trkpt>
      <trkpt lat="42.88404" lon="0.11119">
        <ele>1727.17</ele>
        <time>2018-01-18T09:08:03Z</time>
      </trkpt>
      <trkpt lat="42.88391" lon="0.11136">
        <ele>1727.49</ele>
        <time>2018-01-18T09:08:24Z</time>
      </trkpt>
      <trkpt lat="42.88381" lon="0.11157">
        <ele>1727.45</ele>
        <time>2018-01-18T09:08:51Z</time>
      </trkpt>
      <trkpt lat="42.88362" lon="0.11161">
        <ele>1727.26</ele>
        <time>2018-01-18T09:09:11Z</time>
      </trkpt>
      <trkpt lat="42.88343" lon="0.11159">
        <ele>1727.17</ele>
        <time>2018-01-18T09:09:29Z</time>
      </trkpt>
      <trkpt lat="42.88327" lon="0.11169">
        <ele>1728.47</ele>
        <time>2018-01-18T09:09:51Z</time>
      </trkpt>
      <trkpt lat="42.88308" lon="0.11173">
        <ele>1729.68</ele>
        <time>2018-01-18T09:10:06Z</time>
      </trkpt>
      <trkpt lat="42.88289" lon="0.11178">
        <ele>1731.66</ele>
        <time>2018-01-18T09:10:26Z</time>
      </trkpt>
      <trkpt lat="42.88271" lon="0.11174">
        <ele>1730.44</ele>
        <time>2018-01-18T09:10:50Z</time>
      </trkpt>
      <trkpt lat="42.88253" lon="0.11168">
        <ele>1732.96</ele>
        <time>2018-01-18T09:11:21Z</time>
      </trkpt>
      <trkpt lat="42.88235" lon="0.11169">
        <ele>1752.58</ele>
        <time>2018-01-18T09:19:49Z</time>
      </trkpt>
      <trkpt lat="42.8823" lon="0.11145">
        <ele>1752.21</ele>
        <time>2018-01-18T09:20:29Z</time>
      </trkpt>
      <trkpt lat="42.88214" lon="0.11132">
        <ele>1752.4</ele>
        <time>2018-01-18T09:21:35Z</time>
      </trkpt>
      <trkpt lat="42.88221" lon="0.11109">
        <ele>1754.79</ele>
        <time>2018-01-18T09:22:00Z</time>
      </trkpt>
      <trkpt lat="42.88204" lon="0.11099">
        <ele>1768.4</ele>
        <time>2018-01-18T09:24:20Z</time>
      </trkpt>
      <trkpt lat="42.88193" lon="0.11078">
        <ele>1773.16</ele>
        <time>2018-01-18T09:25:06Z</time>
      </trkpt>
      <trkpt lat="42.8818" lon="0.1106">
        <ele>1780.21</ele>
        <time>2018-01-18T09:25:58Z</time>
      </trkpt>
      <trkpt lat="42.88169" lon="0.1104">
        <ele>1786.16</ele>
        <time>2018-01-18T09:26:46Z</time>
      </trkpt>
      <trkpt lat="42.88155" lon="0.11056">
        <ele>1790.79</ele>
        <time>2018-01-18T09:27:32Z</time>
      </trkpt>
      <trkpt lat="42.88158" lon="0.11032">
        <ele>1801.86</ele>
        <time>2018-01-18T09:28:44Z</time>
      </trkpt>
      <trkpt lat="42.8814" lon="0.11042">
        <ele>1805.8</ele>
        <time>2018-01-18T09:29:14Z</time>
      </trkpt>
      <trkpt lat="42.88128" lon="0.1106">
        <ele>1806.57</ele>
        <time>2018-01-18T09:29:40Z</time>
      </trkpt>
      <trkpt lat="42.88117" lon="0.1108">
        <ele>1807.28</ele>
        <time>2018-01-18T09:30:07Z</time>
      </trkpt>
      <trkpt lat="42.88101" lon="0.11095">
        <ele>1809.54</ele>
        <time>2018-01-18T09:30:32Z</time>
      </trkpt>
      <trkpt lat="42.88098" lon="0.11071">
        <ele>1820.62</ele>
        <time>2018-01-18T09:31:24Z</time>
      </trkpt>
      <trkpt lat="42.8808" lon="0.11075">
        <ele>1824.77</ele>
        <time>2018-01-18T09:31:50Z</time>
      </trkpt>
      <trkpt lat="42.88068" lon="0.11057">
        <ele>1836.94</ele>
        <time>2018-01-18T09:33:09Z</time>
      </trkpt>
      <trkpt lat="42.88052" lon="0.11069">
        <ele>1839.21</ele>
        <time>2018-01-18T09:33:33Z</time>
      </trkpt>
      <trkpt lat="42.88036" lon="0.1108">
        <ele>1843.73</ele>
        <time>2018-01-18T09:34:01Z</time>
      </trkpt>
      <trkpt lat="42.88018" lon="0.11087">
        <ele>1847.98</ele>
        <time>2018-01-18T09:34:34Z</time>
      </trkpt>
      <trkpt lat="42.88006" lon="0.11067">
        <ele>1857.46</ele>
        <time>2018-01-18T09:35:42Z</time>
      </trkpt>
      <trkpt lat="42.87991" lon="0.11055">
        <ele>1867.79</ele>
        <time>2018-01-18T09:37:02Z</time>
      </trkpt>
      <trkpt lat="42.87975" lon="0.11067">
        <ele>1869.04</ele>
        <time>2018-01-18T09:37:22Z</time>
      </trkpt>
      <trkpt lat="42.87963" lon="0.11086">
        <ele>1878.91</ele>
        <time>2018-01-18T09:38:56Z</time>
      </trkpt>
      <trkpt lat="42.87956" lon="0.1111">
        <ele>1881.61</ele>
        <time>2018-01-18T09:39:19Z</time>
      </trkpt>
      <trkpt lat="42.87944" lon="0.1113">
        <ele>1884.43</ele>
        <time>2018-01-18T09:40:39Z</time>
      </trkpt>
      <trkpt lat="42.87937" lon="0.11107">
        <ele>1887.54</ele>
        <time>2018-01-18T09:40:58Z</time>
      </trkpt>
      <trkpt lat="42.87924" lon="0.1109">
        <ele>1898.29</ele>
        <time>2018-01-18T09:42:31Z</time>
      </trkpt>
      <trkpt lat="42.8791" lon="0.11073">
        <ele>1903.23</ele>
        <time>2018-01-18T09:43:25Z</time>
      </trkpt>
      <trkpt lat="42.87893" lon="0.11066">
        <ele>1909.8</ele>
        <time>2018-01-18T09:44:50Z</time>
      </trkpt>
      <trkpt lat="42.8788" lon="0.11084">
        <ele>1910.65</ele>
        <time>2018-01-18T09:45:21Z</time>
      </trkpt>
      <trkpt lat="42.8787" lon="0.11105">
        <ele>1912.06</ele>
        <time>2018-01-18T09:45:43Z</time>
      </trkpt>
      <trkpt lat="42.87864" lon="0.11081">
        <ele>1932.53</ele>
        <time>2018-01-18T09:47:32Z</time>
      </trkpt>
      <trkpt lat="42.87851" lon="0.11064">
        <ele>1943.99</ele>
        <time>2018-01-18T09:48:51Z</time>
      </trkpt>
      <trkpt lat="42.87837" lon="0.11081">
        <ele>1951.49</ele>
        <time>2018-01-18T09:50:00Z</time>
      </trkpt>
      <trkpt lat="42.87819" lon="0.11075">
        <ele>1970.54</ele>
        <time>2018-01-18T09:52:03Z</time>
      </trkpt>
      <trkpt lat="42.87805" lon="0.11091">
        <ele>1972.34</ele>
        <time>2018-01-18T09:52:28Z</time>
      </trkpt>
      <trkpt lat="42.878" lon="0.11067">
        <ele>1987.02</ele>
        <time>2018-01-18T09:54:26Z</time>
      </trkpt>
      <trkpt lat="42.87806" lon="0.11042">
        <ele>1992.72</ele>
        <time>2018-01-18T09:54:59Z</time>
      </trkpt>
      <trkpt lat="42.87793" lon="0.11024">
        <ele>2001.42</ele>
        <time>2018-01-18T09:56:15Z</time>
      </trkpt>
      <trkpt lat="42.8779" lon="0.11">
        <ele>2016.92</ele>
        <time>2018-01-18T09:58:53Z</time>
      </trkpt>
      <trkpt lat="42.87776" lon="0.10983">
        <ele>2029.71</ele>
        <time>2018-01-18T10:08:56Z</time>
      </trkpt>
      <trkpt lat="42.87758" lon="0.10983">
        <ele>2030.39</ele>
        <time>2018-01-18T10:10:55Z</time>
      </trkpt>
      <trkpt lat="42.8774" lon="0.10987">
        <ele>2030.44</ele>
        <time>2018-01-18T10:11:19Z</time>
      </trkpt>
      <trkpt lat="42.87727" lon="0.11005">
        <ele>2030.58</ele>
        <time>2018-01-18T10:11:37Z</time>
      </trkpt>
      <trkpt lat="42.87718" lon="0.11026">
        <ele>2030.97</ele>
        <time>2018-01-18T10:11:58Z</time>
      </trkpt>
      <trkpt lat="42.87701" lon="0.11037">
        <ele>2032.14</ele>
        <time>2018-01-18T10:12:19Z</time>
      </trkpt>
      <trkpt lat="42.87686" lon="0.11049">
        <ele>2034.68</ele>
        <time>2018-01-18T10:12:41Z</time>
      </trkpt>
      <trkpt lat="42.87673" lon="0.11067">
        <ele>2037.55</ele>
        <time>2018-01-18T10:13:04Z</time>
      </trkpt>
      <trkpt lat="42.87655" lon="0.11077">
        <ele>2040.82</ele>
        <time>2018-01-18T10:13:29Z</time>
      </trkpt>
      <trkpt lat="42.87649" lon="0.111">
        <ele>2043.26</ele>
        <time>2018-01-18T10:13:46Z</time>
      </trkpt>
      <trkpt lat="42.87642" lon="0.11122">
        <ele>2047.41</ele>
        <time>2018-01-18T10:14:11Z</time>
      </trkpt>
      <trkpt lat="42.87648" lon="0.11146">
        <ele>2055.73</ele>
        <time>2018-01-18T10:15:58Z</time>
      </trkpt>
      <trkpt lat="42.87631" lon="0.11155">
        <ele>2066.71</ele>
        <time>2018-01-18T10:18:39Z</time>
      </trkpt>
      <trkpt lat="42.87614" lon="0.11149">
        <ele>2066.16</ele>
        <time>2018-01-18T10:18:55Z</time>
      </trkpt>
      <trkpt lat="42.87599" lon="0.11135">
        <ele>2068.68</ele>
        <time>2018-01-18T10:20:01Z</time>
      </trkpt>
      <trkpt lat="42.87595" lon="0.1111">
        <ele>2071.86</ele>
        <time>2018-01-18T10:20:36Z</time>
      </trkpt>
      <trkpt lat="42.87596" lon="0.11085">
        <ele>2076.22</ele>
        <time>2018-01-18T10:21:18Z</time>
      </trkpt>
      <trkpt lat="42.87595" lon="0.1106">
        <ele>2079.68</ele>
        <time>2018-01-18T10:21:59Z</time>
      </trkpt>
      <trkpt lat="42.8758" lon="0.11074">
        <ele>2084.75</ele>
        <time>2018-01-18T10:23:10Z</time>
      </trkpt>
      <trkpt lat="42.87562" lon="0.11077">
        <ele>2091.47</ele>
        <time>2018-01-18T10:24:15Z</time>
      </trkpt>
      <trkpt lat="42.87546" lon="0.11091">
        <ele>2097.98</ele>
        <time>2018-01-18T10:24:51Z</time>
      </trkpt>
      <trkpt lat="42.87532" lon="0.11107">
        <ele>2104.38</ele>
        <time>2018-01-18T10:25:21Z</time>
      </trkpt>
      <trkpt lat="42.87516" lon="0.11118">
        <ele>2112.43</ele>
        <time>2018-01-18T10:25:57Z</time>
      </trkpt>
      <trkpt lat="42.87498" lon="0.11124">
        <ele>2118.55</ele>
        <time>2018-01-18T10:26:30Z</time>
      </trkpt>
      <trkpt lat="42.8748" lon="0.11129">
        <ele>2122.69</ele>
        <time>2018-01-18T10:26:59Z</time>
      </trkpt>
      <trkpt lat="42.87462" lon="0.11134">
        <ele>2127.13</ele>
        <time>2018-01-18T10:27:35Z</time>
      </trkpt>
      <trkpt lat="42.87445" lon="0.11143">
        <ele>2133.31</ele>
        <time>2018-01-18T10:29:22Z</time>
      </trkpt>
      <trkpt lat="42.87429" lon="0.11155">
        <ele>2135.05</ele>
        <time>2018-01-18T10:29:50Z</time>
      </trkpt>
      <trkpt lat="42.87412" lon="0.11144">
        <ele>2139.76</ele>
        <time>2018-01-18T10:32:09Z</time>
      </trkpt>
      <trkpt lat="42.87394" lon="0.1114">
        <ele>2142.05</ele>
        <time>2018-01-18T10:32:34Z</time>
      </trkpt>
      <trkpt lat="42.87376" lon="0.11134">
        <ele>2146.27</ele>
        <time>2018-01-18T10:32:55Z</time>
      </trkpt>
      <trkpt lat="42.87358" lon="0.11129">
        <ele>2147.92</ele>
        <time>2018-01-18T10:33:16Z</time>
      </trkpt>
      <trkpt lat="42.87341" lon="0.11116">
        <ele>2148.43</ele>
        <time>2018-01-18T10:33:28Z</time>
      </trkpt>
      <trkpt lat="42.87324" lon="0.11108">
        <ele>2159.38</ele>
        <time>2018-01-18T10:38:50Z</time>
      </trkpt>
      <trkpt lat="42.87308" lon="0.11097">
        <ele>2161.24</ele>
        <time>2018-01-18T10:39:11Z</time>
      </trkpt>
      <trkpt lat="42.87289" lon="0.11092">
        <ele>2162.33</ele>
        <time>2018-01-18T10:39:41Z</time>
      </trkpt>
      <trkpt lat="42.87271" lon="0.11085">
        <ele>2163.53</ele>
        <time>2018-01-18T10:40:09Z</time>
      </trkpt>
      <trkpt lat="42.87254" lon="0.11075">
        <ele>2165.6</ele>
        <time>2018-01-18T10:40:34Z</time>
      </trkpt>
      <trkpt lat="42.87245" lon="0.11053">
        <ele>2168.92</ele>
        <time>2018-01-18T10:41:51Z</time>
      </trkpt>
      <trkpt lat="42.8723" lon="0.11039">
        <ele>2170.66</ele>
        <time>2018-01-18T10:42:19Z</time>
      </trkpt>
      <trkpt lat="42.87213" lon="0.11028">
        <ele>2173.99</ele>
        <time>2018-01-18T10:42:51Z</time>
      </trkpt>
      <trkpt lat="42.87196" lon="0.11021">
        <ele>2177.38</ele>
        <time>2018-01-18T10:43:16Z</time>
      </trkpt>
      <trkpt lat="42.87179" lon="0.11012">
        <ele>2180.45</ele>
        <time>2018-01-18T10:43:48Z</time>
      </trkpt>
      <trkpt lat="42.87161" lon="0.11006">
        <ele>2186.17</ele>
        <time>2018-01-18T10:45:02Z</time>
      </trkpt>
      <trkpt lat="42.87148" lon="0.10987">
        <ele>2191.09</ele>
        <time>2018-01-18T10:45:21Z</time>
      </trkpt>
      <trkpt lat="42.87151" lon="0.10963">
        <ele>2197.38</ele>
        <time>2018-01-18T10:46:11Z</time>
      </trkpt>
      <trkpt lat="42.87135" lon="0.1095">
        <ele>2202.57</ele>
        <time>2018-01-18T10:46:35Z</time>
      </trkpt>
      <trkpt lat="42.87116" lon="0.10952">
        <ele>2208.64</ele>
        <time>2018-01-18T10:47:06Z</time>
      </trkpt>
      <trkpt lat="42.87099" lon="0.10941">
        <ele>2212.9</ele>
        <time>2018-01-18T10:47:33Z</time>
      </trkpt>
      <trkpt lat="42.87087" lon="0.10922">
        <ele>2217.18</ele>
        <time>2018-01-18T10:48:00Z</time>
      </trkpt>
      <trkpt lat="42.87086" lon="0.10896">
        <ele>2220.91</ele>
        <time>2018-01-18T10:48:31Z</time>
      </trkpt>
      <trkpt lat="42.8709" lon="0.10872">
        <ele>2226.01</ele>
        <time>2018-01-18T10:50:21Z</time>
      </trkpt>
      <trkpt lat="42.87086" lon="0.10848">
        <ele>2227.6</ele>
        <time>2018-01-18T10:50:48Z</time>
      </trkpt>
      <trkpt lat="42.87079" lon="0.10825">
        <ele>2227.74</ele>
        <time>2018-01-18T10:51:11Z</time>
      </trkpt>
      <trkpt lat="42.87074" lon="0.10801">
        <ele>2234.33</ele>
        <time>2018-01-18T10:52:04Z</time>
      </trkpt>
      <trkpt lat="42.87061" lon="0.10783">
        <ele>2253.69</ele>
        <time>2018-01-18T11:01:20Z</time>
      </trkpt>
      <trkpt lat="42.87049" lon="0.10764">
        <ele>2251.98</ele>
        <time>2018-01-18T11:01:57Z</time>
      </trkpt>
      <trkpt lat="42.87045" lon="0.10739">
        <ele>2252.79</ele>
        <time>2018-01-18T11:02:32Z</time>
      </trkpt>
      <trkpt lat="42.87038" lon="0.10715">
        <ele>2255.4</ele>
        <time>2018-01-18T11:03:00Z</time>
      </trkpt>
      <trkpt lat="42.87027" lon="0.10694">
        <ele>2260.12</ele>
        <time>2018-01-18T11:03:38Z</time>
      </trkpt>
      <trkpt lat="42.8702" lon="0.10672">
        <ele>2262.88</ele>
        <time>2018-01-18T11:04:10Z</time>
      </trkpt>
      <trkpt lat="42.87011" lon="0.1065">
        <ele>2266.12</ele>
        <time>2018-01-18T11:04:45Z</time>
      </trkpt>
      <trkpt lat="42.87003" lon="0.10627">
        <ele>2270.14</ele>
        <time>2018-01-18T11:05:27Z</time>
      </trkpt>
      <trkpt lat="42.87003" lon="0.10602">
        <ele>2274.6</ele>
        <time>2018-01-18T11:05:59Z</time>
      </trkpt>
      <trkpt lat="42.87006" lon="0.10578">
        <ele>2278.5</ele>
        <time>2018-01-18T11:06:45Z</time>
      </trkpt>
      <trkpt lat="42.8701" lon="0.10554">
        <ele>2279.8</ele>
        <time>2018-01-18T11:08:22Z</time>
      </trkpt>
      <trkpt lat="42.87013" lon="0.10529">
        <ele>2282.79</ele>
        <time>2018-01-18T11:09:15Z</time>
      </trkpt>
      <trkpt lat="42.87009" lon="0.10505">
        <ele>2291.48</ele>
        <time>2018-01-18T11:10:16Z</time>
      </trkpt>
      <trkpt lat="42.87008" lon="0.1048">
        <ele>2296.13</ele>
        <time>2018-01-18T11:10:41Z</time>
      </trkpt>
      <trkpt lat="42.86997" lon="0.10459">
        <ele>2304.85</ele>
        <time>2018-01-18T11:11:28Z</time>
      </trkpt>
      <trkpt lat="42.87014" lon="0.10449">
        <ele>2309.59</ele>
        <time>2018-01-18T11:14:30Z</time>
      </trkpt>
      <trkpt lat="42.87013" lon="0.10424">
        <ele>2318.44</ele>
        <time>2018-01-18T11:15:27Z</time>
      </trkpt>
      <trkpt lat="42.87023" lon="0.10403">
        <ele>2340.19</ele>
        <time>2018-01-18T11:20:10Z</time>
      </trkpt>
      <trkpt lat="42.87042" lon="0.10401">
        <ele>2347.88</ele>
        <time>2018-01-18T11:21:47Z</time>
      </trkpt>
      <trkpt lat="42.87037" lon="0.10377">
        <ele>2352.99</ele>
        <time>2018-01-18T11:24:01Z</time>
      </trkpt>
      <trkpt lat="42.87027" lon="0.10356">
        <ele>2365.18</ele>
        <time>2018-01-18T11:27:44Z</time>
      </trkpt>
      <trkpt lat="42.87044" lon="0.10367">
        <ele>2368.9</ele>
        <time>2018-01-18T11:30:48Z</time>
      </trkpt>
      <trkpt lat="42.87034" lon="0.10346">
        <ele>2381.27</ele>
        <time>2018-01-18T11:34:12Z</time>
      </trkpt>
      <trkpt lat="42.87024" lon="0.10324">
        <ele>2388.72</ele>
        <time>2018-01-18T11:41:58Z</time>
      </trkpt>
      <trkpt lat="42.87023" lon="0.10299">
        <ele>2391.23</ele>
        <time>2018-01-18T11:42:40Z</time>
      </trkpt>
      <trkpt lat="42.87017" lon="0.10275">
        <ele>2394.98</ele>
        <time>2018-01-18T11:43:07Z</time>
      </trkpt>
      <trkpt lat="42.87007" lon="0.10254">
        <ele>2398.1</ele>
        <time>2018-01-18T11:43:49Z</time>
      </trkpt>
      <trkpt lat="42.87001" lon="0.1023">
        <ele>2401.49</ele>
        <time>2018-01-18T11:44:30Z</time>
      </trkpt>
      <trkpt lat="42.86985" lon="0.10243">
        <ele>2403.61</ele>
        <time>2018-01-18T11:45:24Z</time>
      </trkpt>
      <trkpt lat="42.86975" lon="0.10263">
        <ele>2408</ele>
        <time>2018-01-18T11:46:02Z</time>
      </trkpt>
      <trkpt lat="42.86964" lon="0.10244">
        <ele>2417.67</ele>
        <time>2018-01-18T11:47:33Z</time>
      </trkpt>
      <trkpt lat="42.86948" lon="0.10253">
        <ele>2422.69</ele>
        <time>2018-01-18T11:49:28Z</time>
      </trkpt>
      <trkpt lat="42.86946" lon="0.10229">
        <ele>2433.21</ele>
        <time>2018-01-18T11:50:33Z</time>
      </trkpt>
      <trkpt lat="42.86948" lon="0.10204">
        <ele>2438.04</ele>
        <time>2018-01-18T11:51:12Z</time>
      </trkpt>
      <trkpt lat="42.86934" lon="0.1022">
        <ele>2440.37</ele>
        <time>2018-01-18T11:52:28Z</time>
      </trkpt>
      <trkpt lat="42.86931" lon="0.10196">
        <ele>2449.47</ele>
        <time>2018-01-18T11:54:02Z</time>
      </trkpt>
      <trkpt lat="42.86921" lon="0.10175">
        <ele>2467.12</ele>
        <time>2018-01-18T11:58:43Z</time>
      </trkpt>
      <trkpt lat="42.86913" lon="0.10152">
        <ele>2476.62</ele>
        <time>2018-01-18T12:01:50Z</time>
      </trkpt>
      <trkpt lat="42.86902" lon="0.10133">
        <ele>2487.81</ele>
        <time>2018-01-18T12:10:14Z</time>
      </trkpt>
      <trkpt lat="42.86901" lon="0.10107">
        <ele>2505.82</ele>
        <time>2018-01-18T12:19:50Z</time>
      </trkpt>
      <trkpt lat="42.86901" lon="0.10132">
        <ele>2503.43</ele>
        <time>2018-01-18T12:24:25Z</time>
      </trkpt>
      <trkpt lat="42.86906" lon="0.10157">
        <ele>2495.25</ele>
        <time>2018-01-18T12:29:51Z</time>
      </trkpt>
      <trkpt lat="42.86906" lon="0.10181">
        <ele>2494.56</ele>
        <time>2018-01-18T12:30:00Z</time>
      </trkpt>
      <trkpt lat="42.86906" lon="0.10206">
        <ele>2492.74</ele>
        <time>2018-01-18T12:30:12Z</time>
      </trkpt>
      <trkpt lat="42.86919" lon="0.10187">
        <ele>2475.98</ele>
        <time>2018-01-18T12:36:10Z</time>
      </trkpt>
      <trkpt lat="42.86927" lon="0.10216">
        <ele>2464.47</ele>
        <time>2018-01-18T12:37:36Z</time>
      </trkpt>
      <trkpt lat="42.86946" lon="0.1023">
        <ele>2456.78</ele>
        <time>2018-01-18T12:37:51Z</time>
      </trkpt>
      <trkpt lat="42.86964" lon="0.10231">
        <ele>2452.49</ele>
        <time>2018-01-18T12:37:59Z</time>
      </trkpt>
      <trkpt lat="42.86974" lon="0.1021">
        <ele>2449.65</ele>
        <time>2018-01-18T12:38:05Z</time>
      </trkpt>
      <trkpt lat="42.86983" lon="0.10235">
        <ele>2433.78</ele>
        <time>2018-01-18T12:50:10Z</time>
      </trkpt>
      <trkpt lat="42.86997" lon="0.10252">
        <ele>2423.96</ele>
        <time>2018-01-18T12:51:03Z</time>
      </trkpt>
      <trkpt lat="42.87006" lon="0.10276">
        <ele>2421.42</ele>
        <time>2018-01-18T12:51:12Z</time>
      </trkpt>
      <trkpt lat="42.87025" lon="0.10282">
        <ele>2415.67</ele>
        <time>2018-01-18T12:51:26Z</time>
      </trkpt>
      <trkpt lat="42.87033" lon="0.10306">
        <ele>2406.75</ele>
        <time>2018-01-18T12:51:31Z</time>
      </trkpt>
      <trkpt lat="42.87051" lon="0.10316">
        <ele>2399.06</ele>
        <time>2018-01-18T12:51:50Z</time>
      </trkpt>
      <trkpt lat="42.87068" lon="0.10307">
        <ele>2393.26</ele>
        <time>2018-01-18T12:51:54Z</time>
      </trkpt>
      <trkpt lat="42.87086" lon="0.10297">
        <ele>2390.05</ele>
        <time>2018-01-18T12:51:57Z</time>
      </trkpt>
      <trkpt lat="42.87106" lon="0.10284">
        <ele>2388.34</ele>
        <time>2018-01-18T12:52:00Z</time>
      </trkpt>
      <trkpt lat="42.87125" lon="0.10274">
        <ele>2386.93</ele>
        <time>2018-01-18T12:52:04Z</time>
      </trkpt>
      <trkpt lat="42.87137" lon="0.10251">
        <ele>2384.25</ele>
        <time>2018-01-18T12:52:09Z</time>
      </trkpt>
      <trkpt lat="42.87148" lon="0.10229">
        <ele>2380.58</ele>
        <time>2018-01-18T12:52:13Z</time>
      </trkpt>
      <trkpt lat="42.87164" lon="0.10206">
        <ele>2376.45</ele>
        <time>2018-01-18T12:52:17Z</time>
      </trkpt>
      <trkpt lat="42.87182" lon="0.10197">
        <ele>2373.58</ele>
        <time>2018-01-18T12:52:22Z</time>
      </trkpt>
      <trkpt lat="42.87203" lon="0.10194">
        <ele>2369.32</ele>
        <time>2018-01-18T12:52:28Z</time>
      </trkpt>
      <trkpt lat="42.87217" lon="0.10176">
        <ele>2356.63</ele>
        <time>2018-01-18T13:24:56Z</time>
      </trkpt>
      <trkpt lat="42.87234" lon="0.10159">
        <ele>2357.06</ele>
        <time>2018-01-18T13:25:02Z</time>
      </trkpt>
      <trkpt lat="42.87248" lon="0.10144">
        <ele>2357.06</ele>
        <time>2018-01-18T13:25:07Z</time>
      </trkpt>
      <trkpt lat="42.87263" lon="0.10126">
        <ele>2356.61</ele>
        <time>2018-01-18T13:25:15Z</time>
      </trkpt>
      <trkpt lat="42.87279" lon="0.10113">
        <ele>2355.6</ele>
        <time>2018-01-18T13:25:24Z</time>
      </trkpt>
      <trkpt lat="42.87283" lon="0.10087">
        <ele>2348.53</ele>
        <time>2018-01-18T13:25:38Z</time>
      </trkpt>
      <trkpt lat="42.87296" lon="0.1007">
        <ele>2338.43</ele>
        <time>2018-01-18T13:25:42Z</time>
      </trkpt>
      <trkpt lat="42.87317" lon="0.10056">
        <ele>2333.14</ele>
        <time>2018-01-18T13:25:46Z</time>
      </trkpt>
      <trkpt lat="42.87337" lon="0.10045">
        <ele>2330.93</ele>
        <time>2018-01-18T13:25:53Z</time>
      </trkpt>
      <trkpt lat="42.87354" lon="0.10032">
        <ele>2328.78</ele>
        <time>2018-01-18T13:26:02Z</time>
      </trkpt>
      <trkpt lat="42.87356" lon="0.10057">
        <ele>2320.61</ele>
        <time>2018-01-18T13:27:19Z</time>
      </trkpt>
      <trkpt lat="42.87358" lon="0.10085">
        <ele>2315.6</ele>
        <time>2018-01-18T13:27:53Z</time>
      </trkpt>
      <trkpt lat="42.87362" lon="0.10112">
        <ele>2311.88</ele>
        <time>2018-01-18T13:28:05Z</time>
      </trkpt>
      <trkpt lat="42.87364" lon="0.10139">
        <ele>2307.97</ele>
        <time>2018-01-18T13:28:13Z</time>
      </trkpt>
      <trkpt lat="42.87384" lon="0.10127">
        <ele>2284.47</ele>
        <time>2018-01-18T13:28:29Z</time>
      </trkpt>
      <trkpt lat="42.87396" lon="0.10108">
        <ele>2276.52</ele>
        <time>2018-01-18T13:28:32Z</time>
      </trkpt>
      <trkpt lat="42.87412" lon="0.10088">
        <ele>2271.63</ele>
        <time>2018-01-18T13:28:36Z</time>
      </trkpt>
      <trkpt lat="42.87432" lon="0.10069">
        <ele>2269.82</ele>
        <time>2018-01-18T13:28:40Z</time>
      </trkpt>
      <trkpt lat="42.8745" lon="0.10056">
        <ele>2269.64</ele>
        <time>2018-01-18T13:28:44Z</time>
      </trkpt>
      <trkpt lat="42.87466" lon="0.10043">
        <ele>2269.8</ele>
        <time>2018-01-18T13:28:48Z</time>
      </trkpt>
      <trkpt lat="42.87489" lon="0.10035">
        <ele>2268.96</ele>
        <time>2018-01-18T13:28:52Z</time>
      </trkpt>
      <trkpt lat="42.87507" lon="0.10034">
        <ele>2264.79</ele>
        <time>2018-01-18T13:28:58Z</time>
      </trkpt>
      <trkpt lat="42.87526" lon="0.10043">
        <ele>2261.72</ele>
        <time>2018-01-18T13:29:04Z</time>
      </trkpt>
      <trkpt lat="42.87544" lon="0.10055">
        <ele>2257.37</ele>
        <time>2018-01-18T13:29:09Z</time>
      </trkpt>
      <trkpt lat="42.87564" lon="0.10058">
        <ele>2255.08</ele>
        <time>2018-01-18T13:29:55Z</time>
      </trkpt>
      <trkpt lat="42.87544" lon="0.10063">
        <ele>2254.86</ele>
        <time>2018-01-18T13:35:47Z</time>
      </trkpt>
      <trkpt lat="42.87524" lon="0.1007">
        <ele>2254.18</ele>
        <time>2018-01-18T13:35:52Z</time>
      </trkpt>
      <trkpt lat="42.87504" lon="0.10075">
        <ele>2254.52</ele>
        <time>2018-01-18T13:35:58Z</time>
      </trkpt>
      <trkpt lat="42.87487" lon="0.10093">
        <ele>2255.32</ele>
        <time>2018-01-18T13:36:00Z</time>
      </trkpt>
      <trkpt lat="42.87476" lon="0.10114">
        <ele>2255.56</ele>
        <time>2018-01-18T13:36:04Z</time>
      </trkpt>
      <trkpt lat="42.87466" lon="0.10135">
        <ele>2254.81</ele>
        <time>2018-01-18T13:36:09Z</time>
      </trkpt>
      <trkpt lat="42.87461" lon="0.10162">
        <ele>2252.43</ele>
        <time>2018-01-18T13:36:15Z</time>
      </trkpt>
      <trkpt lat="42.8746" lon="0.10191">
        <ele>2248.67</ele>
        <time>2018-01-18T13:36:23Z</time>
      </trkpt>
      <trkpt lat="42.87461" lon="0.1022">
        <ele>2241.57</ele>
        <time>2018-01-18T13:36:28Z</time>
      </trkpt>
      <trkpt lat="42.87464" lon="0.10248">
        <ele>2234.92</ele>
        <time>2018-01-18T13:36:33Z</time>
      </trkpt>
      <trkpt lat="42.8747" lon="0.10272">
        <ele>2232.76</ele>
        <time>2018-01-18T13:36:38Z</time>
      </trkpt>
      <trkpt lat="42.87479" lon="0.10295">
        <ele>2231.19</ele>
        <time>2018-01-18T13:36:44Z</time>
      </trkpt>
      <trkpt lat="42.8749" lon="0.10318">
        <ele>2229.11</ele>
        <time>2018-01-18T13:36:51Z</time>
      </trkpt>
      <trkpt lat="42.87502" lon="0.10341">
        <ele>2226.73</ele>
        <time>2018-01-18T13:36:58Z</time>
      </trkpt>
      <trkpt lat="42.87513" lon="0.10367">
        <ele>2218.27</ele>
        <time>2018-01-18T13:37:03Z</time>
      </trkpt>
      <trkpt lat="42.87523" lon="0.10388">
        <ele>2214.31</ele>
        <time>2018-01-18T13:37:07Z</time>
      </trkpt>
      <trkpt lat="42.87535" lon="0.10408">
        <ele>2210.78</ele>
        <time>2018-01-18T13:37:19Z</time>
      </trkpt>
      <trkpt lat="42.87552" lon="0.10416">
        <ele>2212.8</ele>
        <time>2018-01-18T13:41:39Z</time>
      </trkpt>
      <trkpt lat="42.87549" lon="0.1044">
        <ele>2213.07</ele>
        <time>2018-01-18T13:43:53Z</time>
      </trkpt>
      <trkpt lat="42.87564" lon="0.10426">
        <ele>2201.82</ele>
        <time>2018-01-18T13:44:44Z</time>
      </trkpt>
      <trkpt lat="42.8758" lon="0.10438">
        <ele>2195.71</ele>
        <time>2018-01-18T13:44:55Z</time>
      </trkpt>
      <trkpt lat="42.87599" lon="0.10454">
        <ele>2188.46</ele>
        <time>2018-01-18T13:45:00Z</time>
      </trkpt>
      <trkpt lat="42.87621" lon="0.10455">
        <ele>2184.91</ele>
        <time>2018-01-18T13:45:07Z</time>
      </trkpt>
      <trkpt lat="42.8764" lon="0.10461">
        <ele>2179.68</ele>
        <time>2018-01-18T13:45:11Z</time>
      </trkpt>
      <trkpt lat="42.87642" lon="0.10492">
        <ele>2167.92</ele>
        <time>2018-01-18T13:46:08Z</time>
      </trkpt>
      <trkpt lat="42.87654" lon="0.10515">
        <ele>2159.95</ele>
        <time>2018-01-18T13:46:12Z</time>
      </trkpt>
      <trkpt lat="42.87673" lon="0.10506">
        <ele>2155.31</ele>
        <time>2018-01-18T13:46:16Z</time>
      </trkpt>
      <trkpt lat="42.87691" lon="0.10518">
        <ele>2152.83</ele>
        <time>2018-01-18T13:46:46Z</time>
      </trkpt>
      <trkpt lat="42.87692" lon="0.10548">
        <ele>2150.71</ele>
        <time>2018-01-18T13:46:50Z</time>
      </trkpt>
      <trkpt lat="42.877" lon="0.10574">
        <ele>2148.83</ele>
        <time>2018-01-18T13:47:03Z</time>
      </trkpt>
      <trkpt lat="42.87708" lon="0.10597">
        <ele>2144.67</ele>
        <time>2018-01-18T13:47:14Z</time>
      </trkpt>
      <trkpt lat="42.87713" lon="0.10622">
        <ele>2138.55</ele>
        <time>2018-01-18T13:47:33Z</time>
      </trkpt>
      <trkpt lat="42.87718" lon="0.10646">
        <ele>2135.67</ele>
        <time>2018-01-18T13:47:41Z</time>
      </trkpt>
      <trkpt lat="42.87713" lon="0.10674">
        <ele>2123.44</ele>
        <time>2018-01-18T13:47:47Z</time>
      </trkpt>
      <trkpt lat="42.87709" lon="0.10698">
        <ele>2116.35</ele>
        <time>2018-01-18T13:47:53Z</time>
      </trkpt>
      <trkpt lat="42.87721" lon="0.10678">
        <ele>2116.14</ele>
        <time>2018-01-18T13:48:12Z</time>
      </trkpt>
      <trkpt lat="42.87737" lon="0.10664">
        <ele>2115.53</ele>
        <time>2018-01-18T13:48:34Z</time>
      </trkpt>
      <trkpt lat="42.87756" lon="0.10674">
        <ele>2114.16</ele>
        <time>2018-01-18T13:48:41Z</time>
      </trkpt>
      <trkpt lat="42.87772" lon="0.1069">
        <ele>2110.34</ele>
        <time>2018-01-18T13:49:11Z</time>
      </trkpt>
      <trkpt lat="42.87781" lon="0.10717">
        <ele>2105.73</ele>
        <time>2018-01-18T13:49:19Z</time>
      </trkpt>
      <trkpt lat="42.87788" lon="0.10745">
        <ele>2096.46</ele>
        <time>2018-01-18T13:49:24Z</time>
      </trkpt>
      <trkpt lat="42.87799" lon="0.10765">
        <ele>2087.83</ele>
        <time>2018-01-18T13:49:29Z</time>
      </trkpt>
      <trkpt lat="42.87809" lon="0.10788">
        <ele>2081.47</ele>
        <time>2018-01-18T13:52:03Z</time>
      </trkpt>
      <trkpt lat="42.87811" lon="0.10814">
        <ele>2077.18</ele>
        <time>2018-01-18T13:52:09Z</time>
      </trkpt>
      <trkpt lat="42.87824" lon="0.10835">
        <ele>2072.68</ele>
        <time>2018-01-18T13:52:32Z</time>
      </trkpt>
      <trkpt lat="42.87842" lon="0.10827">
        <ele>2069.81</ele>
        <time>2018-01-18T13:52:38Z</time>
      </trkpt>
      <trkpt lat="42.8785" lon="0.1085">
        <ele>2058.72</ele>
        <time>2018-01-18T13:53:20Z</time>
      </trkpt>
      <trkpt lat="42.87853" lon="0.10874">
        <ele>2049.92</ele>
        <time>2018-01-18T13:53:36Z</time>
      </trkpt>
      <trkpt lat="42.87844" lon="0.10898">
        <ele>2042.27</ele>
        <time>2018-01-18T13:53:48Z</time>
      </trkpt>
      <trkpt lat="42.87839" lon="0.10922">
        <ele>2026.76</ele>
        <time>2018-01-18T13:53:59Z</time>
      </trkpt>
      <trkpt lat="42.87836" lon="0.10946">
        <ele>2015.7</ele>
        <time>2018-01-18T13:54:04Z</time>
      </trkpt>
      <trkpt lat="42.87842" lon="0.1097">
        <ele>2012.3</ele>
        <time>2018-01-18T13:54:13Z</time>
      </trkpt>
      <trkpt lat="42.87859" lon="0.10981">
        <ele>2005.49</ele>
        <time>2018-01-18T13:54:26Z</time>
      </trkpt>
      <trkpt lat="42.87877" lon="0.10979">
        <ele>1997.91</ele>
        <time>2018-01-18T13:54:41Z</time>
      </trkpt>
      <trkpt lat="42.87895" lon="0.10988">
        <ele>1992.3</ele>
        <time>2018-01-18T13:54:51Z</time>
      </trkpt>
      <trkpt lat="42.87913" lon="0.10994">
        <ele>1980.26</ele>
        <time>2018-01-18T13:56:11Z</time>
      </trkpt>
      <trkpt lat="42.87921" lon="0.11018">
        <ele>1968.86</ele>
        <time>2018-01-18T13:56:19Z</time>
      </trkpt>
      <trkpt lat="42.87918" lon="0.11045">
        <ele>1965.87</ele>
        <time>2018-01-18T13:56:26Z</time>
      </trkpt>
      <trkpt lat="42.87936" lon="0.11056">
        <ele>1959.1</ele>
        <time>2018-01-18T13:56:39Z</time>
      </trkpt>
      <trkpt lat="42.87946" lon="0.11077">
        <ele>1950.18</ele>
        <time>2018-01-18T13:56:51Z</time>
      </trkpt>
      <trkpt lat="42.87963" lon="0.11064">
        <ele>1946.12</ele>
        <time>2018-01-18T13:56:56Z</time>
      </trkpt>
      <trkpt lat="42.87982" lon="0.11073">
        <ele>1934.77</ele>
        <time>2018-01-18T13:57:05Z</time>
      </trkpt>
      <trkpt lat="42.87996" lon="0.11093">
        <ele>1918.35</ele>
        <time>2018-01-18T13:57:12Z</time>
      </trkpt>
      <trkpt lat="42.88013" lon="0.11112">
        <ele>1903.71</ele>
        <time>2018-01-18T13:57:21Z</time>
      </trkpt>
      <trkpt lat="42.88032" lon="0.11108">
        <ele>1885.61</ele>
        <time>2018-01-18T13:59:39Z</time>
      </trkpt>
      <trkpt lat="42.88051" lon="0.11092">
        <ele>1874.93</ele>
        <time>2018-01-18T13:59:43Z</time>
      </trkpt>
      <trkpt lat="42.88067" lon="0.11079">
        <ele>1871.02</ele>
        <time>2018-01-18T13:59:48Z</time>
      </trkpt>
      <trkpt lat="42.88086" lon="0.11083">
        <ele>1866.64</ele>
        <time>2018-01-18T14:00:05Z</time>
      </trkpt>
      <trkpt lat="42.88102" lon="0.11072">
        <ele>1855.82</ele>
        <time>2018-01-18T14:00:09Z</time>
      </trkpt>
      <trkpt lat="42.88121" lon="0.11072">
        <ele>1850.97</ele>
        <time>2018-01-18T14:00:44Z</time>
      </trkpt>
      <trkpt lat="42.88136" lon="0.11055">
        <ele>1848.91</ele>
        <time>2018-01-18T14:00:58Z</time>
      </trkpt>
      <trkpt lat="42.88153" lon="0.11045">
        <ele>1846.11</ele>
        <time>2018-01-18T14:01:13Z</time>
      </trkpt>
      <trkpt lat="42.88168" lon="0.1103">
        <ele>1843.65</ele>
        <time>2018-01-18T14:01:24Z</time>
      </trkpt>
      <trkpt lat="42.88181" lon="0.11049">
        <ele>1836.16</ele>
        <time>2018-01-18T14:01:58Z</time>
      </trkpt>
      <trkpt lat="42.88192" lon="0.11069">
        <ele>1826.41</ele>
        <time>2018-01-18T14:02:33Z</time>
      </trkpt>
      <trkpt lat="42.8821" lon="0.11077">
        <ele>1820.1</ele>
        <time>2018-01-18T14:02:44Z</time>
      </trkpt>
      <trkpt lat="42.88211" lon="0.11105">
        <ele>1807.83</ele>
        <time>2018-01-18T14:02:49Z</time>
      </trkpt>
      <trkpt lat="42.88224" lon="0.11124">
        <ele>1795.06</ele>
        <time>2018-01-18T14:03:19Z</time>
      </trkpt>
      <trkpt lat="42.88232" lon="0.11146">
        <ele>1779.94</ele>
        <time>2018-01-18T14:03:30Z</time>
      </trkpt>
      <trkpt lat="42.88239" lon="0.11171">
        <ele>1773.11</ele>
        <time>2018-01-18T14:03:40Z</time>
      </trkpt>
      <trkpt lat="42.8826" lon="0.11179">
        <ele>1752.13</ele>
        <time>2018-01-18T14:03:49Z</time>
      </trkpt>
      <trkpt lat="42.88278" lon="0.11182">
        <ele>1745.05</ele>
        <time>2018-01-18T14:03:52Z</time>
      </trkpt>
      <trkpt lat="42.88299" lon="0.11186">
        <ele>1738.38</ele>
        <time>2018-01-18T14:03:57Z</time>
      </trkpt>
      <trkpt lat="42.88319" lon="0.11188">
        <ele>1737.44</ele>
        <time>2018-01-18T14:04:02Z</time>
      </trkpt>
      <trkpt lat="42.88331" lon="0.1117">
        <ele>1749.77</ele>
        <time>2018-01-18T14:10:12Z</time>
      </trkpt>
      <trkpt lat="42.88349" lon="0.11162">
        <ele>1750.33</ele>
        <time>2018-01-18T14:10:19Z</time>
      </trkpt>
      <trkpt lat="42.88366" lon="0.11167">
        <ele>1750.26</ele>
        <time>2018-01-18T14:10:26Z</time>
      </trkpt>
      <trkpt lat="42.88384" lon="0.11165">
        <ele>1748.6</ele>
        <time>2018-01-18T14:11:14Z</time>
      </trkpt>
      <trkpt lat="42.88392" lon="0.11142">
        <ele>1745.48</ele>
        <time>2018-01-18T14:11:38Z</time>
      </trkpt>
      <trkpt lat="42.88403" lon="0.11122">
        <ele>1743.25</ele>
        <time>2018-01-18T14:11:53Z</time>
      </trkpt>
      <trkpt lat="42.88415" lon="0.11103">
        <ele>1741.27</ele>
        <time>2018-01-18T14:12:09Z</time>
      </trkpt>
      <trkpt lat="42.88431" lon="0.11087">
        <ele>1739.33</ele>
        <time>2018-01-18T14:12:25Z</time>
      </trkpt>
      <trkpt lat="42.88443" lon="0.11067">
        <ele>1736.91</ele>
        <time>2018-01-18T14:12:43Z</time>
      </trkpt>
      <trkpt lat="42.88454" lon="0.11048">
        <ele>1734.8</ele>
        <time>2018-01-18T14:12:57Z</time>
      </trkpt>
      <trkpt lat="42.88468" lon="0.11033">
        <ele>1732.25</ele>
        <time>2018-01-18T14:13:13Z</time>
      </trkpt>
      <trkpt lat="42.88482" lon="0.11017">
        <ele>1729.38</ele>
        <time>2018-01-18T14:13:31Z</time>
      </trkpt>
      <trkpt lat="42.88499" lon="0.11007">
        <ele>1726.24</ele>
        <time>2018-01-18T14:13:48Z</time>
      </trkpt>
      <trkpt lat="42.88516" lon="0.10993">
        <ele>1722.21</ele>
        <time>2018-01-18T14:14:31Z</time>
      </trkpt>
      <trkpt lat="42.88532" lon="0.10979">
        <ele>1720.79</ele>
        <time>2018-01-18T14:14:37Z</time>
      </trkpt>
      <trkpt lat="42.88547" lon="0.1096">
        <ele>1719.85</ele>
        <time>2018-01-18T14:14:42Z</time>
      </trkpt>
      <trkpt lat="42.88562" lon="0.10944">
        <ele>1716.57</ele>
        <time>2018-01-18T14:14:47Z</time>
      </trkpt>
      <trkpt lat="42.88576" lon="0.10929">
        <ele>1715.19</ele>
        <time>2018-01-18T14:14:57Z</time>
      </trkpt>
      <trkpt lat="42.88592" lon="0.10916">
        <ele>1710.39</ele>
        <time>2018-01-18T14:15:37Z</time>
      </trkpt>
      <trkpt lat="42.88609" lon="0.10907">
        <ele>1709.31</ele>
        <time>2018-01-18T14:15:54Z</time>
      </trkpt>
      <trkpt lat="42.88624" lon="0.10892">
        <ele>1707.21</ele>
        <time>2018-01-18T14:16:14Z</time>
      </trkpt>
      <trkpt lat="42.88637" lon="0.10876">
        <ele>1704.59</ele>
        <time>2018-01-18T14:16:34Z</time>
      </trkpt>
      <trkpt lat="42.88651" lon="0.10859">
        <ele>1699.52</ele>
        <time>2018-01-18T14:17:00Z</time>
      </trkpt>
      <trkpt lat="42.88667" lon="0.10847">
        <ele>1688.92</ele>
        <time>2018-01-18T14:17:35Z</time>
      </trkpt>
      <trkpt lat="42.88685" lon="0.1085">
        <ele>1684.99</ele>
        <time>2018-01-18T14:17:57Z</time>
      </trkpt>
      <trkpt lat="42.88702" lon="0.10842">
        <ele>1682.07</ele>
        <time>2018-01-18T14:18:19Z</time>
      </trkpt>
      <trkpt lat="42.88721" lon="0.10841">
        <ele>1679.63</ele>
        <time>2018-01-18T14:18:39Z</time>
      </trkpt>
      <trkpt lat="42.8874" lon="0.10842">
        <ele>1678.77</ele>
        <time>2018-01-18T14:18:59Z</time>
      </trkpt>
      <trkpt lat="42.88758" lon="0.10841">
        <ele>1678.38</ele>
        <time>2018-01-18T14:19:17Z</time>
      </trkpt>
      <trkpt lat="42.88776" lon="0.10837">
        <ele>1677.7</ele>
        <time>2018-01-18T14:19:31Z</time>
      </trkpt>
      <trkpt lat="42.88793" lon="0.10826">
        <ele>1676.2</ele>
        <time>2018-01-18T14:19:45Z</time>
      </trkpt>
      <trkpt lat="42.88811" lon="0.10822">
        <ele>1673.4</ele>
        <time>2018-01-18T14:20:00Z</time>
      </trkpt>
      <trkpt lat="42.88829" lon="0.10813">
        <ele>1669.47</ele>
        <time>2018-01-18T14:20:16Z</time>
      </trkpt>
      <trkpt lat="42.88844" lon="0.10798">
        <ele>1665.98</ele>
        <time>2018-01-18T14:20:29Z</time>
      </trkpt>
      <trkpt lat="42.88862" lon="0.10797">
        <ele>1662.71</ele>
        <time>2018-01-18T14:20:44Z</time>
      </trkpt>
      <trkpt lat="42.8888" lon="0.10801">
        <ele>1661.36</ele>
        <time>2018-01-18T14:21:10Z</time>
      </trkpt>
      <trkpt lat="42.88898" lon="0.10792">
        <ele>1661.36</ele>
        <time>2018-01-18T14:21:18Z</time>
      </trkpt>
      <trkpt lat="42.88916" lon="0.10775">
        <ele>1660.9</ele>
        <time>2018-01-18T14:21:27Z</time>
      </trkpt>
      <trkpt lat="42.88929" lon="0.10758">
        <ele>1665.95</ele>
        <time>2018-01-18T14:31:06Z</time>
      </trkpt>
      <trkpt lat="42.88948" lon="0.10748">
        <ele>1665.6</ele>
        <time>2018-01-18T14:31:13Z</time>
      </trkpt>
      <trkpt lat="42.88966" lon="0.10746">
        <ele>1664.94</ele>
        <time>2018-01-18T14:31:19Z</time>
      </trkpt>
      <trkpt lat="42.88986" lon="0.1075">
        <ele>1663.11</ele>
        <time>2018-01-18T14:31:26Z</time>
      </trkpt>
      <trkpt lat="42.89004" lon="0.10755">
        <ele>1659.29</ele>
        <time>2018-01-18T14:31:30Z</time>
      </trkpt>
      <trkpt lat="42.89022" lon="0.10753">
        <ele>1656.52</ele>
        <time>2018-01-18T14:31:34Z</time>
      </trkpt>
      <trkpt lat="42.8904" lon="0.10752">
        <ele>1654.23</ele>
        <time>2018-01-18T14:31:38Z</time>
      </trkpt>
      <trkpt lat="42.89061" lon="0.10742">
        <ele>1652.55</ele>
        <time>2018-01-18T14:31:42Z</time>
      </trkpt>
      <trkpt lat="42.89077" lon="0.10726">
        <ele>1651.33</ele>
        <time>2018-01-18T14:31:46Z</time>
      </trkpt>
      <trkpt lat="42.89098" lon="0.10727">
        <ele>1650.43</ele>
        <time>2018-01-18T14:31:52Z</time>
      </trkpt>
      <trkpt lat="42.89119" lon="0.10727">
        <ele>1647.51</ele>
        <time>2018-01-18T14:31:57Z</time>
      </trkpt>
      <trkpt lat="42.89141" lon="0.10717">
        <ele>1644.84</ele>
        <time>2018-01-18T14:32:02Z</time>
      </trkpt>
      <trkpt lat="42.89161" lon="0.10713">
        <ele>1642.91</ele>
        <time>2018-01-18T14:32:07Z</time>
      </trkpt>
      <trkpt lat="42.8918" lon="0.10715">
        <ele>1640.7</ele>
        <time>2018-01-18T14:32:11Z</time>
      </trkpt>
      <trkpt lat="42.89202" lon="0.10721">
        <ele>1638.27</ele>
        <time>2018-01-18T14:32:15Z</time>
      </trkpt>
      <trkpt lat="42.89226" lon="0.10726">
        <ele>1635.72</ele>
        <time>2018-01-18T14:32:19Z</time>
      </trkpt>
      <trkpt lat="42.89246" lon="0.10725">
        <ele>1633.09</ele>
        <time>2018-01-18T14:32:22Z</time>
      </trkpt>
      <trkpt lat="42.89265" lon="0.10731">
        <ele>1630.6</ele>
        <time>2018-01-18T14:32:25Z</time>
      </trkpt>
      <trkpt lat="42.89285" lon="0.10733">
        <ele>1628.63</ele>
        <time>2018-01-18T14:32:28Z</time>
      </trkpt>
      <trkpt lat="42.89305" lon="0.10739">
        <ele>1626.6</ele>
        <time>2018-01-18T14:32:31Z</time>
      </trkpt>
      <trkpt lat="42.89322" lon="0.10747">
        <ele>1624.44</ele>
        <time>2018-01-18T14:32:34Z</time>
      </trkpt>
      <trkpt lat="42.89335" lon="0.10767">
        <ele>1622.36</ele>
        <time>2018-01-18T14:32:39Z</time>
      </trkpt>
      <trkpt lat="42.89353" lon="0.10771">
        <ele>1620.54</ele>
        <time>2018-01-18T14:33:31Z</time>
      </trkpt>
      <trkpt lat="42.89374" lon="0.10764">
        <ele>1614.76</ele>
        <time>2018-01-18T14:33:36Z</time>
      </trkpt>
      <trkpt lat="42.89393" lon="0.10766">
        <ele>1609.61</ele>
        <time>2018-01-18T14:33:40Z</time>
      </trkpt>
      <trkpt lat="42.89417" lon="0.10764">
        <ele>1605.3</ele>
        <time>2018-01-18T14:33:44Z</time>
      </trkpt>
      <trkpt lat="42.89438" lon="0.10761">
        <ele>1601.94</ele>
        <time>2018-01-18T14:33:47Z</time>
      </trkpt>
      <trkpt lat="42.8946" lon="0.10758">
        <ele>1598.46</ele>
        <time>2018-01-18T14:33:50Z</time>
      </trkpt>
      <trkpt lat="42.8948" lon="0.1076">
        <ele>1595.12</ele>
        <time>2018-01-18T14:33:53Z</time>
      </trkpt>
      <trkpt lat="42.89497" lon="0.10771">
        <ele>1592.76</ele>
        <time>2018-01-18T14:33:57Z</time>
      </trkpt>
      <trkpt lat="42.89516" lon="0.10779">
        <ele>1591.28</ele>
        <time>2018-01-18T14:34:03Z</time>
      </trkpt>
      <trkpt lat="42.89534" lon="0.10788">
        <ele>1590.49</ele>
        <time>2018-01-18T14:34:10Z</time>
      </trkpt>
      <trkpt lat="42.89552" lon="0.10796">
        <ele>1589.52</ele>
        <time>2018-01-18T14:34:27Z</time>
      </trkpt>
      <trkpt lat="42.8957" lon="0.10802">
        <ele>1589.33</ele>
        <time>2018-01-18T14:34:36Z</time>
      </trkpt>
      <trkpt lat="42.89588" lon="0.10804">
        <ele>1589.01</ele>
        <time>2018-01-18T14:34:46Z</time>
      </trkpt>
      <trkpt lat="42.89608" lon="0.10798">
        <ele>1586.94</ele>
        <time>2018-01-18T14:34:57Z</time>
      </trkpt>
      <trkpt lat="42.89624" lon="0.10782">
        <ele>1581.97</ele>
        <time>2018-01-18T14:35:02Z</time>
      </trkpt>
      <trkpt lat="42.89647" lon="0.1078">
        <ele>1576.45</ele>
        <time>2018-01-18T14:35:08Z</time>
      </trkpt>
      <trkpt lat="42.89666" lon="0.10785">
        <ele>1573.89</ele>
        <time>2018-01-18T14:35:12Z</time>
      </trkpt>
      <trkpt lat="42.89685" lon="0.10785">
        <ele>1571.78</ele>
        <time>2018-01-18T14:36:59Z</time>
      </trkpt>
      <trkpt lat="42.89703" lon="0.10792">
        <ele>1572.11</ele>
        <time>2018-01-18T14:37:15Z</time>
      </trkpt>
      <trkpt lat="42.89722" lon="0.10793">
        <ele>1573.92</ele>
        <time>2018-01-18T14:37:31Z</time>
      </trkpt>
      <trkpt lat="42.89741" lon="0.1079">
        <ele>1572.69</ele>
        <time>2018-01-18T14:42:35Z</time>
      </trkpt>
      <trkpt lat="42.89759" lon="0.10777">
        <ele>1568.95</ele>
        <time>2018-01-18T14:42:59Z</time>
      </trkpt>
      <trkpt lat="42.89781" lon="0.10755">
        <ele>1566.09</ele>
        <time>2018-01-18T14:43:02Z</time>
      </trkpt>
      <trkpt lat="42.89796" lon="0.10739">
        <ele>1564.26</ele>
        <time>2018-01-18T14:43:06Z</time>
      </trkpt>
      <trkpt lat="42.89812" lon="0.10721">
        <ele>1560.6</ele>
        <time>2018-01-18T14:45:05Z</time>
      </trkpt>
      <trkpt lat="42.89829" lon="0.10702">
        <ele>1557.26</ele>
        <time>2018-01-18T14:45:10Z</time>
      </trkpt>
      <trkpt lat="42.8985" lon="0.10698">
        <ele>1554.77</ele>
        <time>2018-01-18T14:45:16Z</time>
      </trkpt>
      <trkpt lat="42.89868" lon="0.10691">
        <ele>1550.9</ele>
        <time>2018-01-18T14:45:20Z</time>
      </trkpt>
      <trkpt lat="42.89872" lon="0.10661">
        <ele>1544.39</ele>
        <time>2018-01-18T14:45:27Z</time>
      </trkpt>
      <trkpt lat="42.89886" lon="0.1064">
        <ele>1540.51</ele>
        <time>2018-01-18T14:45:32Z</time>
      </trkpt>
      <trkpt lat="42.8989" lon="0.10612">
        <ele>1533.62</ele>
        <time>2018-01-18T14:45:36Z</time>
      </trkpt>
      <trkpt lat="42.89904" lon="0.10593">
        <ele>1529.67</ele>
        <time>2018-01-18T14:45:40Z</time>
      </trkpt>
      <trkpt lat="42.89911" lon="0.10569">
        <ele>1524.28</ele>
        <time>2018-01-18T14:45:43Z</time>
      </trkpt>
      <trkpt lat="42.89927" lon="0.10556">
        <ele>1518.93</ele>
        <time>2018-01-18T14:45:47Z</time>
      </trkpt>
      <trkpt lat="42.89936" lon="0.10534">
        <ele>1515.73</ele>
        <time>2018-01-18T14:45:50Z</time>
      </trkpt>
      <trkpt lat="42.8994" lon="0.10503">
        <ele>1512.93</ele>
        <time>2018-01-18T14:45:53Z</time>
      </trkpt>
      <trkpt lat="42.89957" lon="0.10481">
        <ele>1510.55</ele>
        <time>2018-01-18T14:45:57Z</time>
      </trkpt>
      <trkpt lat="42.89976" lon="0.10466">
        <ele>1507.59</ele>
        <time>2018-01-18T14:46:01Z</time>
      </trkpt>
      <trkpt lat="42.89989" lon="0.10447">
        <ele>1504.89</ele>
        <time>2018-01-18T14:46:04Z</time>
      </trkpt>
      <trkpt lat="42.90006" lon="0.10436">
        <ele>1501.77</ele>
        <time>2018-01-18T14:46:07Z</time>
      </trkpt>
      <trkpt lat="42.90021" lon="0.1042">
        <ele>1497.5</ele>
        <time>2018-01-18T14:46:14Z</time>
      </trkpt>
      <trkpt lat="42.90044" lon="0.10412">
        <ele>1490.55</ele>
        <time>2018-01-18T14:46:18Z</time>
      </trkpt>
      <trkpt lat="42.90068" lon="0.1041">
        <ele>1486.32</ele>
        <time>2018-01-18T14:46:21Z</time>
      </trkpt>
      <trkpt lat="42.90094" lon="0.1041">
        <ele>1482.5</ele>
        <time>2018-01-18T14:46:24Z</time>
      </trkpt>
      <trkpt lat="42.90112" lon="0.10406">
        <ele>1481</ele>
        <time>2018-01-18T14:46:26Z</time>
      </trkpt>
      <trkpt lat="42.90137" lon="0.10396">
        <ele>1478.66</ele>
        <time>2018-01-18T14:46:29Z</time>
      </trkpt>
      <trkpt lat="42.90155" lon="0.10382">
        <ele>1476.61</ele>
        <time>2018-01-18T14:46:31Z</time>
      </trkpt>
      <trkpt lat="42.90169" lon="0.10366">
        <ele>1474.65</ele>
        <time>2018-01-18T14:46:33Z</time>
      </trkpt>
      <trkpt lat="42.90195" lon="0.10358">
        <ele>1472.09</ele>
        <time>2018-01-18T14:46:36Z</time>
      </trkpt>
      <trkpt lat="42.90214" lon="0.10354">
        <ele>1470.57</ele>
        <time>2018-01-18T14:46:38Z</time>
      </trkpt>
      <trkpt lat="42.90233" lon="0.10351">
        <ele>1469.12</ele>
        <time>2018-01-18T14:46:40Z</time>
      </trkpt>
      <trkpt lat="42.90257" lon="0.10357">
        <ele>1467.2</ele>
        <time>2018-01-18T14:46:43Z</time>
      </trkpt>
      <trkpt lat="42.90278" lon="0.10359">
        <ele>1465.53</ele>
        <time>2018-01-18T14:46:46Z</time>
      </trkpt>
      <trkpt lat="42.903" lon="0.10355">
        <ele>1463.99</ele>
        <time>2018-01-18T14:46:49Z</time>
      </trkpt>
      <trkpt lat="42.90321" lon="0.10349">
        <ele>1462.44</ele>
        <time>2018-01-18T14:46:52Z</time>
      </trkpt>
      <trkpt lat="42.90339" lon="0.10333">
        <ele>1460.82</ele>
        <time>2018-01-18T14:46:55Z</time>
      </trkpt>
      <trkpt lat="42.90346" lon="0.10308">
        <ele>1458.84</ele>
        <time>2018-01-18T14:47:02Z</time>
      </trkpt>
      <trkpt lat="42.9036" lon="0.1029">
        <ele>1456.33</ele>
        <time>2018-01-18T14:48:10Z</time>
      </trkpt>
    </trkseg>
  </trk>
</gpx>